Time;durP1;ratioP1;P1;durP2;ratioP2;P2;SDS_P1;SDS_P2;PMS_P1;PMS_P2;Temp;Humidity;BMP_temperature;BMP_pressure;BME280_temperature;BME280_humidity;BME280_pressure;Samples;Min_cycle;Max_cycle;Signal;HPM_P1;HPM_P2
2022/11/27 00:00:42;;;;;;;46.53;21.23;;;;;;;6.87;100.00;102803.00;4977690;28;20220;-73
2022/11/27 00:03:07;;;;;;;42.27;21.27;;;;;;;6.82;100.00;102786.56;4982269;28;20188;-73
2022/11/27 00:05:33;;;;;;;44.27;20.67;;;;;;;6.81;100.00;102780.56;4984237;28;20208;-73
2022/11/27 00:07:58;;;;;;;47.20;21.07;;;;;;;6.75;100.00;102777.63;4984563;28;20203;-73
2022/11/27 00:10:24;;;;;;;41.63;20.90;;;;;;;6.70;100.00;102773.91;4982829;28;20187;-72
2022/11/27 00:12:49;;;;;;;39.23;20.47;;;;;;;6.60;100.00;102779.19;4984510;28;20188;-73
2022/11/27 00:15:15;;;;;;;41.67;19.90;;;;;;;6.52;100.00;102777.78;4980184;28;20251;-72
2022/11/27 00:17:40;;;;;;;40.70;19.77;;;;;;;6.44;100.00;102784.00;4958810;28;20208;-72
2022/11/27 00:20:06;;;;;;;34.53;17.17;;;;;;;6.40;100.00;102784.59;4970867;28;20188;-72
2022/11/27 00:22:32;;;;;;;36.33;18.67;;;;;;;6.32;100.00;102783.22;4983012;28;20689;-72
2022/11/27 00:24:57;;;;;;;40.60;19.10;;;;;;;6.25;100.00;102775.94;4985693;28;20192;-72
2022/11/27 00:27:23;;;;;;;36.63;17.67;;;;;;;6.19;100.00;102783.16;4980459;28;20336;-72
2022/11/27 00:29:49;;;;;;;38.83;17.37;;;;;;;6.16;100.00;102785.47;4979086;28;20321;-73
2022/11/27 00:32:14;;;;;;;31.07;16.53;;;;;;;6.10;100.00;102784.19;4977485;28;20196;-72
2022/11/27 00:34:39;;;;;;;30.97;17.80;;;;;;;6.01;100.00;102792.06;4975152;28;20282;-72
2022/11/27 00:37:06;;;;;;;39.80;16.73;;;;;;;5.96;100.00;102795.06;4965318;28;20235;-72
2022/11/27 00:39:31;;;;;;;38.30;17.33;;;;;;;5.96;100.00;102800.16;4969877;28;20195;-72
2022/11/27 00:41:57;;;;;;;33.23;16.50;;;;;;;5.96;100.00;102797.59;4984419;28;20287;-72
2022/11/27 00:44:22;;;;;;;28.03;16.37;;;;;;;5.90;100.00;102789.56;4979004;28;20251;-72
2022/11/27 00:46:48;;;;;;;27.90;15.90;;;;;;;5.85;100.00;102789.22;4980926;28;20684;-72
2022/11/27 00:49:14;;;;;;;30.03;16.63;;;;;;;5.78;100.00;102797.19;4981302;28;20188;-72
2022/11/27 00:51:40;;;;;;;31.07;15.57;;;;;;;5.78;100.00;102806.47;4985747;28;20215;-72
2022/11/27 00:54:06;;;;;;;34.67;17.10;;;;;;;5.75;100.00;102806.28;4977142;28;20231;-72
2022/11/27 00:56:35;;;;;;;33.20;15.97;;;;;;;5.72;100.00;102814.56;4959982;28;20845;-72
2022/11/27 00:59:01;;;;;;;31.30;16.53;;;;;;;5.71;100.00;102806.81;4977440;28;20184;-72
2022/11/27 01:01:30;;;;;;;34.97;17.60;;;;;;;5.73;100.00;102812.88;4987225;28;20216;-72
2022/11/27 01:03:57;;;;;;;27.63;16.20;;;;;;;5.66;100.00;102813.25;4985094;28;20199;-72
2022/11/27 01:06:23;;;;;;;27.57;16.03;;;;;;;5.64;100.00;102820.75;4983933;28;20216;-72
2022/11/27 01:08:49;;;;;;;34.97;17.03;;;;;;;5.61;100.00;102820.53;4982585;28;20185;-72
2022/11/27 01:11:22;;;;;;;32.37;17.27;;;;;;;5.65;100.00;102822.53;4982304;28;20184;-72
2022/11/27 01:13:48;;;;;;;33.17;17.00;;;;;;;5.67;100.00;102817.53;4981722;28;20561;-72
2022/11/27 01:16:16;;;;;;;40.20;19.07;;;;;;;5.65;100.00;102814.91;4983007;28;20215;-73
2022/11/27 01:18:44;;;;;;;36.47;17.53;;;;;;;5.61;100.00;102820.53;4980022;28;20684;-73
2022/11/27 01:21:10;;;;;;;32.33;16.37;;;;;;;5.54;100.00;102813.25;4989042;28;20259;-73
2022/11/27 01:23:36;;;;;;;33.43;15.60;;;;;;;5.50;100.00;102808.75;4965233;28;20279;-72
2022/11/27 01:26:05;;;;;;;27.33;14.70;;;;;;;5.44;100.00;102804.88;4983458;28;20243;-72
2022/11/27 01:28:31;;;;;;;33.53;16.43;;;;;;;5.42;100.00;102803.88;4979430;28;20195;-72
2022/11/27 01:30:56;;;;;;;26.23;15.30;;;;;;;5.39;100.00;102806.22;4976259;28;20211;-72
2022/11/27 01:33:22;;;;;;;25.03;14.23;;;;;;;5.30;100.00;102798.78;4984137;28;20218;-72
2022/11/27 01:35:59;;;;;;;32.80;15.50;;;;;;;5.25;100.00;102789.97;4984579;28;20287;-72
2022/11/27 01:38:25;;;;;;;31.30;14.40;;;;;;;5.19;100.00;102792.06;4963180;28;20192;-72
2022/11/27 01:40:59;;;;;;;27.90;14.60;;;;;;;5.20;100.00;102788.75;4974961;28;20217;-72
2022/11/27 01:43:55;;;;;;;29.20;14.87;;;;;;;5.16;100.00;102784.22;4969719;28;20184;-72
2022/11/27 01:46:26;;;;;;;28.67;14.27;;;;;;;5.09;100.00;102784.56;4979703;28;20232;-72
2022/11/27 01:48:54;;;;;;;26.37;14.00;;;;;;;5.04;100.00;102785.00;4982721;28;20234;-72
2022/11/27 01:51:21;;;;;;;22.90;13.47;;;;;;;4.95;100.00;102781.81;4983146;28;20192;-72
2022/11/27 01:53:47;;;;;;;31.07;14.60;;;;;;;4.88;100.00;102766.91;4986905;28;20198;-72
2022/11/27 01:56:13;;;;;;;23.23;12.93;;;;;;;4.89;100.00;102766.13;4985527;28;20239;-72
2022/11/27 01:58:39;;;;;;;26.60;14.13;;;;;;;4.86;100.00;102770.97;4986688;28;20196;-72
2022/11/27 02:01:05;;;;;;;23.33;13.33;;;;;;;4.84;100.00;102764.94;4987754;28;20224;-72
2022/11/27 02:03:33;;;;;;;22.40;12.40;;;;;;;4.78;100.00;102760.28;4985057;28;20184;-72
2022/11/27 02:05:58;;;;;;;24.70;13.17;;;;;;;4.75;100.00;102761.72;4990433;28;20212;-72
2022/11/27 02:08:24;;;;;;;20.53;12.00;;;;;;;4.65;100.00;102772.81;4988364;28;20200;-72
2022/11/27 02:11:05;;;;;;;19.33;11.93;;;;;;;4.65;100.00;102771.97;4983831;28;20207;-71
2022/11/27 02:13:56;;;;;;;22.03;11.70;;;;;;;4.54;100.00;102762.66;4981941;28;20191;-72
2022/11/27 02:16:34;;;;;;;23.47;12.03;;;;;;;4.54;100.00;102761.03;4974336;28;22015;-72
2022/11/27 02:19:21;;;;;;;23.00;12.03;;;;;;;4.51;100.00;102757.38;4974111;23;20199;-77
2022/11/27 02:22:09;;;;;;;24.87;11.97;;;;;;;4.46;100.00;102754.50;4968590;28;20682;-77
2022/11/27 02:24:55;;;;;;;20.00;11.87;;;;;;;4.43;100.00;102764.44;4970086;28;20278;-79
2022/11/27 02:27:42;;;;;;;22.23;12.17;;;;;;;4.33;100.00;102761.94;4973340;28;20208;-78
2022/11/27 02:30:09;;;;;;;17.13;11.80;;;;;;;4.26;100.00;102758.84;4971521;28;20188;-79
2022/11/27 02:32:50;;;;;;;21.47;11.50;;;;;;;4.22;100.00;102757.75;4979482;28;20184;-76
2022/11/27 02:35:28;;;;;;;20.37;11.07;;;;;;;4.18;100.00;102759.94;4988032;28;20189;-78
2022/11/27 02:38:14;;;;;;;20.80;11.33;;;;;;;4.12;100.00;102755.28;4972504;28;20625;-79
2022/11/27 02:40:45;;;;;;;19.53;11.43;;;;;;;4.05;100.00;102750.50;4971626;28;20203;-79
2022/11/27 02:43:18;;;;;;;19.10;11.30;;;;;;;4.02;100.00;102759.53;4983867;28;20204;-77
2022/11/27 02:45:48;;;;;;;19.10;10.93;;;;;;;3.95;100.00;102760.72;4971526;28;20235;-78
2022/11/27 02:48:17;;;;;;;24.40;11.40;;;;;;;3.94;100.00;102758.06;4973181;28;20623;-79
2022/11/27 02:50:45;;;;;;;19.47;11.30;;;;;;;3.92;100.00;102754.53;4971712;28;21153;-78
2022/11/27 02:53:19;;;;;;;20.57;10.83;;;;;;;3.86;100.00;102757.47;4966908;28;20212;-77
2022/11/27 02:55:48;;;;;;;30.00;12.13;;;;;;;3.86;100.00;102749.88;4971013;28;20279;-77
2022/11/27 02:58:17;;;;;;;19.40;11.47;;;;;;;3.83;100.00;102753.84;4971782;28;20209;-77
2022/11/27 03:00:45;;;;;;;20.23;10.77;;;;;;;3.76;100.00;102754.13;4971362;28;20208;-76
2022/11/27 03:03:14;;;;;;;20.80;11.50;;;;;;;3.75;100.00;102758.31;4972720;28;20228;-78
2022/11/27 03:05:44;;;;;;;21.63;12.07;;;;;;;3.77;100.00;102758.44;4976879;28;20561;-77
2022/11/27 03:08:12;;;;;;;22.43;11.70;;;;;;;3.72;100.00;102763.13;4972827;28;20212;-77
2022/11/27 03:10:53;;;;;;;16.97;11.07;;;;;;;3.68;100.00;102765.34;4972857;28;20557;-77
2022/11/27 03:13:19;;;;;;;21.90;11.10;;;;;;;3.59;100.00;102760.41;4985131;28;20200;-78
2022/11/27 03:16:16;;;;;;;17.67;10.70;;;;;;;3.58;100.00;102767.91;4969476;28;20199;-77
2022/11/27 03:18:46;;;;;;;20.70;11.27;;;;;;;3.54;100.00;102763.38;4969808;28;20204;-79
2022/11/27 03:21:24;;;;;;;17.37;11.20;;;;;;;3.47;100.00;102766.19;4962275;28;20223;-78
2022/11/27 03:23:50;;;;;;;17.50;11.20;;;;;;;3.43;100.00;102757.47;4969093;28;20189;-79
2022/11/27 03:26:15;;;;;;;21.70;11.50;;;;;;;3.38;100.00;102765.47;4969373;28;20192;-78
2022/11/27 03:28:44;;;;;;;20.93;11.53;;;;;;;3.30;100.00;102761.44;4969428;28;20196;-78
2022/11/27 03:31:11;;;;;;;18.37;10.67;;;;;;;3.31;100.00;102769.16;4971055;28;20195;-78
2022/11/27 03:33:37;;;;;;;17.63;10.00;;;;;;;3.30;100.00;102769.91;4969313;28;20220;-78
2022/11/27 03:36:13;;;;;;;14.77;9.77;;;;;;;3.30;100.00;102767.38;4972058;28;20197;-78
2022/11/27 03:38:39;;;;;;;18.97;10.83;;;;;;;3.28;100.00;102763.88;4954207;28;20231;-77
2022/11/27 03:41:14;;;;;;;13.53;9.93;;;;;;;3.25;100.00;102770.31;4972029;28;20240;-78
2022/11/27 03:44:03;;;;;;;18.50;10.43;;;;;;;3.18;100.00;102763.00;4963173;28;20662;-80
2022/11/27 03:46:48;;;;;;;21.27;10.03;;;;;;;3.15;100.00;102766.19;4970292;28;20728;-77
2022/11/27 03:49:31;;;;;;;18.27;9.90;;;;;;;3.13;100.00;102769.34;4981801;28;20181;-79
2022/11/27 03:52:02;;;;;;;17.37;10.23;;;;;;;3.08;100.00;102765.59;4971658;28;20211;-78
2022/11/27 03:54:46;;;;;;;20.00;10.33;;;;;;;3.03;100.00;102766.88;4971770;28;20196;-78
2022/11/27 03:57:21;;;;;;;21.40;10.70;;;;;;;2.99;100.00;102765.72;4970173;28;20250;-77
2022/11/27 03:59:51;;;;;;;17.13;10.57;;;;;;;2.96;100.00;102764.59;4970105;28;20195;-77
2022/11/27 04:02:27;;;;;;;20.50;11.17;;;;;;;2.91;100.00;102761.72;4969937;28;20219;-78
2022/11/27 04:04:53;;;;;;;20.47;11.00;;;;;;;2.92;100.00;102758.41;4969308;28;20654;-78
2022/11/27 04:07:18;;;;;;;21.07;11.47;;;;;;;2.89;100.00;102753.09;4970325;28;20213;-77
2022/11/27 04:09:44;;;;;;;20.27;11.47;;;;;;;2.81;100.00;102754.13;4968787;28;20200;-77
2022/11/27 04:12:09;;;;;;;14.87;9.97;;;;;;;2.81;100.00;102761.69;4968067;28;20187;-78
2022/11/27 04:14:34;;;;;;;24.17;10.90;;;;;;;2.76;100.00;102755.38;4969892;28;20192;-79
2022/11/27 04:17:00;;;;;;;22.53;10.77;;;;;;;2.76;100.00;102757.91;4969174;28;20209;-76
2022/11/27 04:19:25;;;;;;;23.73;10.33;;;;;;;2.73;100.00;102752.63;4969745;28;20260;-77
2022/11/27 04:21:51;;;;;;;22.70;10.80;;;;;;;2.71;100.00;102755.81;4963029;28;20359;-78
2022/11/27 04:24:16;;;;;;;14.33;10.10;;;;;;;2.66;100.00;102760.47;4957023;28;20254;-78
2022/11/27 04:26:41;;;;;;;17.40;10.23;;;;;;;2.65;100.00;102752.75;4971151;28;20247;-78
2022/11/27 04:29:07;;;;;;;17.03;10.53;;;;;;;2.59;100.00;102740.53;4959326;28;20200;-77
2022/11/27 04:31:32;;;;;;;17.47;10.77;;;;;;;2.60;100.00;102741.38;4971337;28;20184;-78
2022/11/27 04:33:58;;;;;;;16.57;10.10;;;;;;;2.58;100.00;102747.97;4969441;28;20193;-79
2022/11/27 04:36:23;;;;;;;17.07;9.97;;;;;;;2.56;100.00;102742.78;4954903;28;20188;-76
2022/11/27 04:38:48;;;;;;;21.47;11.43;;;;;;;2.58;100.00;102736.19;4949879;28;20199;-77
2022/11/27 04:41:14;;;;;;;18.13;9.83;;;;;;;2.56;100.00;102737.72;4970921;28;20590;-79
2022/11/27 04:43:39;;;;;;;21.10;10.10;;;;;;;2.54;100.00;102735.84;4969371;28;20279;-77
2022/11/27 04:46:05;;;;;;;16.93;10.80;;;;;;;2.52;100.00;102738.25;4969174;28;20184;-77
2022/11/27 04:48:30;;;;;;;18.23;11.10;;;;;;;2.52;100.00;102735.72;4970288;28;20200;-78
2022/11/27 04:50:55;;;;;;;22.37;11.17;;;;;;;2.53;100.00;102734.94;4969309;28;20279;-78
2022/11/27 04:53:21;;;;;;;19.83;11.83;;;;;;;2.52;100.00;102738.25;4968598;28;20212;-79
2022/11/27 04:55:46;;;;;;;15.67;10.63;;;;;;;2.47;100.00;102734.44;4981133;28;20271;-77
2022/11/27 04:58:12;;;;;;;18.50;11.30;;;;;;;2.42;100.00;102732.28;4969524;28;20584;-77
2022/11/27 05:00:37;;;;;;;16.60;11.30;;;;;;;2.36;100.00;102729.28;4969197;28;20188;-78
2022/11/27 05:03:03;;;;;;;16.30;10.93;;;;;;;2.37;100.00;102720.94;4958609;28;20247;-77
2022/11/27 05:05:28;;;;;;;18.93;11.73;;;;;;;2.39;100.00;102717.78;4969021;28;20661;-77
2022/11/27 05:07:53;;;;;;;20.87;12.13;;;;;;;2.38;100.00;102713.47;4968382;28;20212;-77
2022/11/27 05:10:19;;;;;;;20.67;12.70;;;;;;;2.36;100.00;102707.44;4970262;28;20195;-78
2022/11/27 05:12:44;;;;;;;26.80;13.27;;;;;;;2.39;100.00;102691.63;4970797;28;20234;-77
2022/11/27 05:15:10;;;;;;;25.10;12.97;;;;;;;2.39;100.00;102689.09;4970561;28;20207;-76
2022/11/27 05:17:35;;;;;;;24.90;13.20;;;;;;;2.33;100.00;102684.44;4969389;28;20219;-77
2022/11/27 05:20:00;;;;;;;21.30;12.33;;;;;;;2.31;100.00;102685.06;4982714;28;20652;-78
2022/11/27 05:22:26;;;;;;;22.73;12.97;;;;;;;2.27;100.00;102683.03;4970824;28;20239;-77
2022/11/27 05:24:51;;;;;;;24.83;13.27;;;;;;;2.22;100.00;102681.78;4985653;28;20555;-77
2022/11/27 05:27:17;;;;;;;26.53;13.73;;;;;;;2.18;100.00;102674.72;4970610;28;20239;-78
2022/11/27 05:29:42;;;;;;;25.63;14.00;;;;;;;2.19;100.00;102672.31;4970614;28;20196;-77
2022/11/27 05:32:08;;;;;;;20.87;13.27;;;;;;;2.15;100.00;102672.81;4966675;28;20193;-75
2022/11/27 05:34:33;;;;;;;30.00;14.23;;;;;;;2.16;100.00;102668.66;4957318;28;20220;-78
2022/11/27 05:36:59;;;;;;;25.73;14.27;;;;;;;2.14;100.00;102667.63;4980297;28;20240;-76
2022/11/27 05:39:25;;;;;;;33.80;16.70;;;;;;;2.19;100.00;102672.31;4969429;28;20192;-77
2022/11/27 05:41:50;;;;;;;28.37;15.00;;;;;;;2.17;100.00;102671.31;4970560;28;20677;-78
2022/11/27 05:44:15;;;;;;;28.17;14.70;;;;;;;2.15;100.00;102665.25;4970471;28;20180;-76
2022/11/27 05:46:42;;;;;;;28.43;15.50;;;;;;;2.14;100.00;102660.06;4969218;28;20291;-78
2022/11/27 05:49:10;;;;;;;31.13;16.10;;;;;;;2.14;100.00;102667.63;4969659;28;20204;-76
2022/11/27 05:51:36;;;;;;;25.70;15.00;;;;;;;2.07;100.00;102665.38;4970805;28;20254;-77
2022/11/27 05:54:01;;;;;;;26.00;15.37;;;;;;;2.01;100.00;102663.22;4969081;28;20658;-76
2022/11/27 05:56:27;;;;;;;25.80;15.70;;;;;;;2.00;100.00;102660.56;4968926;28;20204;-78
2022/11/27 05:58:52;;;;;;;24.47;14.93;;;;;;;1.98;100.00;102657.06;4967912;28;20220;-76
2022/11/27 06:01:18;;;;;;;28.40;16.43;;;;;;;1.98;100.00;102659.56;4974805;28;20583;-77
2022/11/27 06:03:44;;;;;;;32.93;15.37;;;;;;;1.97;100.00;102663.72;4967869;28;20192;-76
2022/11/27 06:06:13;;;;;;;28.60;15.20;;;;;;;1.94;100.00;102655.03;4969094;28;20320;-76
2022/11/27 06:08:39;;;;;;;27.37;14.93;;;;;;;1.92;100.00;102662.47;4969184;28;20193;-76
2022/11/27 06:11:09;;;;;;;26.63;14.50;;;;;;;1.90;100.00;102653.91;4955731;28;20714;-75
2022/11/27 06:13:35;;;;;;;31.53;16.53;;;;;;;1.91;100.00;102658.19;4969641;28;20184;-74
2022/11/27 06:16:21;;;;;;;30.53;16.40;;;;;;;1.92;100.00;102657.41;4969088;28;20275;-74
2022/11/27 06:18:51;;;;;;;34.20;16.93;;;;;;;1.95;100.00;102654.25;4983438;28;20202;-74
2022/11/27 06:21:18;;;;;;;28.67;15.97;;;;;;;1.90;100.00;102655.53;4967485;28;20356;-74
2022/11/27 06:23:44;;;;;;;30.50;16.67;;;;;;;1.87;100.00;102655.25;4968814;28;20212;-75
2022/11/27 06:26:18;;;;;;;30.33;15.40;;;;;;;1.84;100.00;102650.84;4968723;28;20191;-74
2022/11/27 06:28:45;;;;;;;29.53;15.10;;;;;;;1.81;100.00;102650.63;4988486;28;20192;-74
2022/11/27 06:31:14;;;;;;;32.27;16.07;;;;;;;1.80;100.00;102648.84;4973759;28;20203;-75
2022/11/27 06:33:40;;;;;;;33.90;16.90;;;;;;;1.82;100.00;102648.94;4973148;28;20238;-75
2022/11/27 06:36:05;;;;;;;33.47;17.17;;;;;;;1.81;100.00;102653.13;4972381;28;20195;-75
2022/11/27 06:38:36;;;;;;;33.60;16.00;;;;;;;1.83;100.00;102648.22;4972424;28;20196;-75
2022/11/27 06:41:03;;;;;;;32.30;16.67;;;;;;;1.81;100.00;102645.56;4972217;28;20242;-74
2022/11/27 06:43:29;;;;;;;31.37;16.80;;;;;;;1.78;100.00;102642.78;4972201;28;20193;-75
2022/11/27 06:45:58;;;;;;;28.40;16.27;;;;;;;1.84;100.00;102637.34;4974003;28;20189;-75
2022/11/27 06:48:23;;;;;;;34.70;18.23;;;;;;;1.88;100.00;102630.16;4968782;28;20204;-75
2022/11/27 06:50:49;;;;;;;35.83;20.77;;;;;;;1.95;100.00;102634.94;4972531;28;20569;-74
2022/11/27 06:53:14;;;;;;;35.57;19.00;;;;;;;1.97;100.00;102627.50;4970282;28;20600;-75
2022/11/27 06:55:40;;;;;;;35.37;18.30;;;;;;;1.93;100.00;102628.88;4951906;28;20239;-74
2022/11/27 06:58:05;;;;;;;38.07;18.17;;;;;;;2.02;100.00;102636.34;4969910;28;20223;-74
2022/11/27 07:00:31;;;;;;;29.73;17.60;;;;;;;1.96;100.00;102625.72;4970886;28;20202;-74
2022/11/27 07:02:56;;;;;;;34.33;17.13;;;;;;;1.94;100.00;102622.19;4969701;28;20216;-75
2022/11/27 07:05:23;;;;;;;30.83;15.67;;;;;;;1.93;100.00;102618.78;4969142;28;20614;-75
2022/11/27 07:07:48;;;;;;;31.63;16.73;;;;;;;1.92;100.00;102627.13;4953618;28;20234;-75
2022/11/27 07:10:14;;;;;;;33.23;17.20;;;;;;;1.94;100.00;102619.66;4985721;28;20666;-75
2022/11/27 07:12:39;;;;;;;27.80;15.43;;;;;;;1.94;100.00;102624.72;4965478;28;20186;-75
2022/11/27 07:15:05;;;;;;;32.30;17.07;;;;;;;1.97;100.00;102619.94;4968521;28;20197;-75
2022/11/27 07:17:30;;;;;;;37.33;17.30;;;;;;;2.02;100.00;102617.00;4966152;28;20220;-75
2022/11/27 07:19:56;;;;;;;32.17;17.30;;;;;;;2.07;100.00;102628.34;4964142;28;20286;-75
2022/11/27 07:22:21;;;;;;;34.07;18.23;;;;;;;2.08;100.00;102616.63;4972641;28;20707;-75
2022/11/27 07:24:49;;;;;;;37.77;17.23;;;;;;;2.13;100.00;102616.25;4972319;28;20666;-75
2022/11/27 07:27:14;;;;;;;33.37;18.07;;;;;;;2.17;100.00;102615.75;4971960;28;20215;-75
2022/11/27 07:29:40;;;;;;;31.77;17.07;;;;;;;2.20;100.00;102615.97;4970580;28;20678;-75
2022/11/27 07:32:05;;;;;;;35.23;18.43;;;;;;;2.24;100.00;102622.16;4970943;28;20742;-75
2022/11/27 07:34:30;;;;;;;40.80;19.03;;;;;;;2.29;100.00;102618.38;4969117;28;20242;-74
2022/11/27 07:36:56;;;;;;;32.67;18.07;;;;;;;2.33;100.00;102616.19;4970231;28;20233;-75
2022/11/27 07:39:21;;;;;;;35.03;18.00;;;;;;;2.36;100.00;102613.94;4969189;28;20283;-74
2022/11/27 07:41:47;;;;;;;31.87;17.63;;;;;;;2.34;100.00;102615.44;4967515;28;20217;-74
2022/11/27 07:44:12;;;;;;;33.47;17.83;;;;;;;2.36;100.00;102606.34;4962961;28;20216;-75
2022/11/27 07:46:38;;;;;;;34.60;18.13;;;;;;;2.44;100.00;102612.00;4967139;28;20739;-74
2022/11/27 07:49:03;;;;;;;29.20;16.03;;;;;;;2.49;100.00;102613.25;4966174;28;20197;-75
2022/11/27 07:51:29;;;;;;;33.20;16.17;;;;;;;2.58;100.00;102608.94;4966507;28;20220;-74
2022/11/27 07:53:55;;;;;;;31.90;16.27;;;;;;;2.66;100.00;102608.75;4947884;28;20201;-75
2022/11/27 07:56:21;;;;;;;38.50;17.13;;;;;;;2.69;100.00;102605.59;4966050;28;20224;-75
2022/11/27 07:58:46;;;;;;;32.03;15.87;;;;;;;2.76;100.00;102608.72;4986905;28;20243;-74
2022/11/27 08:01:14;;;;;;;30.13;15.47;;;;;;;2.80;100.00;102608.19;4983679;28;20749;-75
2022/11/27 08:03:43;;;;;;;31.47;15.67;;;;;;;2.86;100.00;102608.72;4967468;28;20557;-75
2022/11/27 08:06:20;;;;;;;28.80;16.17;;;;;;;2.92;100.00;102608.28;4969825;28;20196;-75
2022/11/27 08:08:46;;;;;;;36.67;17.13;;;;;;;2.98;100.00;102599.53;4970799;28;20606;-75
2022/11/27 08:11:23;;;;;;;33.60;16.03;;;;;;;3.05;100.00;102591.66;4971351;28;20220;-75
2022/11/27 08:13:49;;;;;;;30.57;16.27;;;;;;;3.09;100.00;102591.09;4985117;28;20688;-75
2022/11/27 08:16:15;;;;;;;28.07;15.57;;;;;;;3.10;100.00;102585.28;4970269;28;20280;-75
2022/11/27 08:18:41;;;;;;;30.40;15.63;;;;;;;3.15;100.00;102584.00;4970161;28;20952;-75
2022/11/27 08:21:07;;;;;;;33.33;15.57;;;;;;;3.19;100.00;102585.09;4969384;28;20227;-75
2022/11/27 08:23:32;;;;;;;29.83;16.17;;;;;;;3.25;100.00;102581.41;4983735;28;20204;-75
2022/11/27 08:25:58;;;;;;;29.40;15.67;;;;;;;3.29;100.00;102575.81;4970271;28;20201;-75
2022/11/27 08:28:23;;;;;;;30.40;15.90;;;;;;;3.40;100.00;102579.16;4961896;28;20278;-75
2022/11/27 08:30:59;;;;;;;28.67;16.13;;;;;;;3.46;100.00;102577.06;4968120;28;20189;-76
2022/11/27 08:33:25;;;;;;;29.13;15.53;;;;;;;3.56;100.00;102580.41;4964627;28;20251;-77
2022/11/27 08:35:51;;;;;;;29.47;16.27;;;;;;;3.65;100.00;102570.97;4968027;28;20208;-75
2022/11/27 08:38:17;;;;;;;26.87;16.07;;;;;;;3.73;100.00;102569.88;4970978;28;20242;-75
2022/11/27 08:40:42;;;;;;;31.37;15.73;;;;;;;3.89;100.00;102567.72;4970901;28;20196;-75
2022/11/27 08:43:08;;;;;;;25.13;15.33;;;;;;;4.06;100.00;102563.88;4957301;28;20231;-75
2022/11/27 08:45:33;;;;;;;26.17;14.90;;;;;;;4.10;100.00;102558.25;4973572;28;20231;-76
2022/11/27 08:47:59;;;;;;;24.37;14.63;;;;;;;4.20;100.00;102560.69;4969117;28;20247;-75
2022/11/27 08:50:24;;;;;;;26.83;15.50;;;;;;;4.36;100.00;102561.88;4969767;28;20184;-76
2022/11/27 08:52:50;;;;;;;26.20;14.63;;;;;;;4.48;100.00;102559.34;4967565;28;20184;-75
2022/11/27 08:55:15;;;;;;;29.17;15.17;;;;;;;4.35;100.00;102557.59;4970988;28;20201;-75
2022/11/27 08:57:41;;;;;;;24.47;14.67;;;;;;;4.32;100.00;102562.44;4969306;28;20251;-76
2022/11/27 09:00:07;;;;;;;24.47;14.23;;;;;;;4.38;100.00;102559.47;4981880;28;20202;-76
2022/11/27 09:02:33;;;;;;;29.80;13.17;;;;;;;4.49;100.00;102563.63;4975973;28;20298;-75
2022/11/27 09:04:58;;;;;;;26.00;14.33;;;;;;;4.57;100.00;102545.66;4952202;28;20200;-76
2022/11/27 09:07:24;;;;;;;26.03;15.27;;;;;;;4.70;100.00;102533.03;4969666;28;20220;-76
2022/11/27 09:09:49;;;;;;;23.57;14.37;;;;;;;4.78;100.00;102531.06;4967131;28;20207;-76
2022/11/27 09:12:15;;;;;;;25.13;13.97;;;;;;;4.88;100.00;102531.78;4952763;28;20263;-75
2022/11/27 09:14:40;;;;;;;24.57;12.93;;;;;;;4.86;100.00;102529.91;4967116;28;20204;-76
2022/11/27 09:17:06;;;;;;;23.23;13.33;;;;;;;4.92;100.00;102525.28;4970172;28;20223;-76
2022/11/27 09:19:31;;;;;;;22.33;14.30;;;;;;;4.92;100.00;102525.28;4970863;28;20295;-75
2022/11/27 09:21:57;;;;;;;22.87;12.90;;;;;;;4.91;100.00;102523.50;4970523;28;20224;-75
2022/11/27 09:24:22;;;;;;;20.87;12.93;;;;;;;4.92;100.00;102517.69;4979059;28;20188;-75
2022/11/27 09:26:48;;;;;;;21.10;13.07;;;;;;;4.90;100.00;102515.03;4970667;28;20685;-76
2022/11/27 09:29:13;;;;;;;19.37;13.33;;;;;;;4.92;100.00;102513.47;4977129;28;20189;-75
2022/11/27 09:31:38;;;;;;;24.77;13.40;;;;;;;5.01;100.00;102513.22;4968525;28;20280;-75
2022/11/27 09:34:04;;;;;;;20.17;12.63;;;;;;;5.16;100.00;102515.13;4960436;28;20265;-75
2022/11/27 09:36:30;;;;;;;21.53;12.37;;;;;;;5.27;100.00;102519.28;4968590;28;20208;-75
2022/11/27 09:38:58;;;;;;;23.47;12.97;;;;;;;5.76;99.58;102520.88;4968357;28;20196;-75
2022/11/27 09:41:49;;;;;;;20.20;12.90;;;;;;;6.24;97.35;102524.94;4969074;28;20216;-76
2022/11/27 09:44:28;;;;;;;15.83;11.20;;;;;;;6.23;95.47;102524.81;4985209;28;20227;-75
2022/11/27 09:46:55;;;;;;;22.03;11.80;;;;;;;6.22;94.29;102533.25;4974810;28;20231;-76
2022/11/27 09:49:39;;;;;;;17.23;11.00;;;;;;;6.42;94.32;102515.03;4974192;28;20180;-76
2022/11/27 09:52:09;;;;;;;15.33;10.67;;;;;;;7.18;92.31;102499.41;4970367;28;20184;-76
2022/11/27 09:54:39;;;;;;;16.53;10.40;;;;;;;6.30;90.95;102501.53;4976654;28;20673;-75
2022/11/27 09:57:06;;;;;;;13.07;9.63;;;;;;;7.67;88.77;102476.00;4966664;28;20250;-76
2022/11/27 09:59:49;;;;;;;15.27;10.10;;;;;;;7.00;89.48;102467.75;4970393;28;20200;-75
2022/11/27 10:02:28;;;;;;;11.30;8.97;;;;;;;8.26;85.41;102464.06;4952955;28;20644;-76
2022/11/27 10:04:54;;;;;;;12.27;8.90;;;;;;;9.99;79.45;102448.31;4973671;28;20202;-76
2022/11/27 10:07:27;;;;;;;12.20;7.57;;;;;;;11.87;68.82;102432.84;4973805;28;20211;-76
2022/11/27 10:10:41;;;;;;;10.90;8.13;;;;;;;12.41;65.77;102437.56;4974284;28;20197;-76
2022/11/27 10:13:22;;;;;;;9.77;7.63;;;;;;;13.00;62.89;102428.56;4972084;28;20607;-75
2022/11/27 10:15:54;;;;;;;13.37;8.07;;;;;;;11.93;65.05;102435.66;4973938;28;20283;-76
2022/11/27 10:18:46;;;;;;;10.77;7.90;;;;;;;11.44;67.88;102429.34;4969630;28;20304;-76
2022/11/27 10:21:49;;;;;;;13.27;8.17;;;;;;;9.42;73.85;102427.63;4972171;28;20220;-76
2022/11/27 10:24:28;;;;;;;12.57;8.73;;;;;;;8.17;81.62;102435.47;4973302;28;20181;-76
2022/11/27 10:26:58;;;;;;;12.33;8.53;;;;;;;7.62;84.81;102436.63;4972243;28;20262;-75
2022/11/27 10:29:52;;;;;;;16.70;9.30;;;;;;;7.46;87.10;102430.59;4985652;28;20582;-75
2022/11/27 10:32:30;;;;;;;11.00;8.67;;;;;;;7.14;89.11;102435.47;4969258;28;20720;-75
2022/11/27 10:35:10;;;;;;;13.80;9.70;;;;;;;7.02;89.90;102440.75;4969335;28;20230;-76
2022/11/27 10:37:57;;;;;;;14.50;11.23;;;;;;;6.88;90.66;102446.69;4972519;28;20775;-76
2022/11/27 10:40:29;;;;;;;21.80;14.13;;;;;;;6.98;91.53;102446.44;4970666;28;20337;-75
2022/11/27 10:43:11;;;;;;;14.83;10.47;;;;;;;7.00;91.20;102452.47;4982135;28;20339;-75
2022/11/27 10:45:58;;;;;;;15.10;10.27;;;;;;;6.93;91.49;102464.75;4968013;28;20252;-75
2022/11/27 10:48:23;;;;;;;17.10;10.73;;;;;;;6.98;90.84;102445.53;4970901;28;20208;-76
2022/11/27 10:50:50;;;;;;;15.33;9.97;;;;;;;7.13;90.82;102438.78;4973126;28;20211;-75
2022/11/27 10:53:31;;;;;;;12.97;9.83;;;;;;;7.35;89.86;102429.06;4960176;28;20188;-75
2022/11/27 10:56:23;;;;;;;16.00;10.50;;;;;;;10.70;79.33;102414.13;4956978;28;20720;-76
2022/11/27 10:59:01;;;;;;;12.37;9.07;;;;;;;12.32;68.25;102408.06;4971934;28;20185;-76
2022/11/27 11:01:48;;;;;;;10.73;7.90;;;;;;;9.41;75.86;102426.78;4971563;28;20233;-76
2022/11/27 11:04:20;;;;;;;14.07;9.43;;;;;;;8.19;82.95;102433.84;4969185;28;20621;-76
2022/11/27 11:06:48;;;;;;;15.30;8.73;;;;;;;8.37;84.40;102424.66;4966541;28;20221;-76
2022/11/27 11:09:22;;;;;;;13.97;10.70;;;;;;;8.42;84.38;102430.91;4969744;28;20184;-75
2022/11/27 11:11:48;;;;;;;12.37;8.83;;;;;;;9.53;80.89;102418.78;4964787;28;20655;-76
2022/11/27 11:14:22;;;;;;;10.27;8.23;;;;;;;10.02;78.60;102420.34;4966590;28;20184;-76
2022/11/27 11:16:49;;;;;;;13.40;8.87;;;;;;;9.96;78.09;102414.94;4980221;28;20217;-76
2022/11/27 11:19:35;;;;;;;14.67;9.43;;;;;;;9.29;79.84;102418.47;4971607;28;20204;-76
2022/11/27 11:22:13;;;;;;;13.93;9.17;;;;;;;9.40;79.79;102411.34;4981063;28;20216;-76